createdAt,value
2023-03-25T00:03:54.753Z,21.20
2023-03-25T00:06:23.030Z,21.80
2023-03-25T00:08:52.095Z,26.70
2023-03-25T00:11:20.556Z,21.40
2023-03-25T00:13:49.188Z,19.80
2023-03-25T00:16:26.128Z,24.80
2023-03-25T00:18:54.979Z,20.40
2023-03-25T00:21:23.705Z,18.90
2023-03-25T00:23:51.944Z,22.40
2023-03-25T00:26:21.759Z,20.90
2023-03-25T00:28:50.061Z,20.80
2023-03-25T00:31:19.852Z,19.20
2023-03-25T00:33:50.961Z,22.70
2023-03-25T00:36:23.052Z,21.50
2023-03-25T00:38:51.624Z,22.50
2023-03-25T00:41:27.982Z,20.60
2023-03-25T00:43:58.570Z,21.70
2023-03-25T00:46:28.850Z,22.70
2023-03-25T00:48:57.410Z,28.00
2023-03-25T00:51:34.126Z,22.80
2023-03-25T01:01:39.994Z,22.60
2023-03-25T01:04:12.757Z,23.80
2023-03-25T01:06:44.189Z,24.30
2023-03-25T01:09:16.528Z,24.60
2023-03-25T01:14:18.608Z,21.80
2023-03-25T01:16:50.627Z,25.80
2023-03-25T01:19:19.074Z,25.40
2023-03-25T01:21:48.035Z,22.40
2023-03-25T01:24:20.565Z,22.20
2023-03-25T01:26:49.029Z,25.20
2023-03-25T01:29:19.143Z,24.30
2023-03-25T01:31:47.869Z,24.70
2023-03-25T01:34:17.153Z,26.80
2023-03-25T01:36:46.905Z,23.30
2023-03-25T01:39:18.968Z,27.90
2023-03-25T01:41:50.701Z,23.60
2023-03-25T01:44:19.683Z,27.10
2023-03-25T01:46:54.009Z,26.80
2023-03-25T01:49:44.648Z,23.20
2023-03-25T01:52:16.736Z,23.20
2023-03-25T01:54:45.651Z,22.40
2023-03-25T01:57:19.785Z,21.00
2023-03-25T01:59:52.388Z,23.70
2023-03-25T02:02:21.955Z,25.50
2023-03-25T02:05:01.626Z,24.40
2023-03-25T02:07:32.838Z,23.30
2023-03-25T02:10:26.708Z,27.50
2023-03-25T02:12:55.063Z,24.20
2023-03-25T02:15:28.404Z,25.70
2023-03-25T02:18:13.660Z,23.20
2023-03-25T02:21:08.501Z,24.40
2023-03-25T02:23:42.383Z,26.90
2023-03-25T02:26:36.843Z,27.00
2023-03-25T02:31:49.578Z,23.40
2023-03-25T02:34:35.833Z,24.90
2023-03-25T02:37:27.378Z,27.30
2023-03-25T02:40:07.458Z,27.00
2023-03-25T02:43:14.820Z,24.30
2023-03-25T02:45:50.275Z,25.00
2023-03-25T02:49:19.788Z,24.50
2023-03-25T02:52:17.534Z,25.20
2023-03-25T02:54:46.353Z,27.00
2023-03-25T02:57:16.242Z,29.50
2023-03-25T02:59:46.368Z,25.50
2023-03-25T03:02:14.623Z,23.60
2023-03-25T03:05:01.266Z,27.10
2023-03-25T03:07:36.594Z,26.80
2023-03-25T03:10:18.277Z,25.30
2023-03-25T03:13:19.728Z,28.40
2023-03-25T03:16:19.892Z,26.90
2023-03-25T03:19:09.202Z,27.70
2023-03-25T03:21:46.474Z,27.50
2023-03-25T03:24:39.303Z,26.20
2023-03-25T03:27:38.360Z,27.60
2023-03-25T03:30:06.915Z,27.10
2023-03-25T03:32:48.600Z,27.60
2023-03-25T03:35:25.989Z,26.40
2023-03-25T03:38:03.935Z,24.60
2023-03-25T03:40:32.295Z,28.20
2023-03-25T03:43:33.683Z,26.70
2023-03-25T03:46:07.182Z,26.50
2023-03-25T03:48:49.477Z,27.10
2023-03-25T03:54:05.234Z,27.30
2023-03-25T03:56:41.505Z,25.90
2023-03-25T03:59:27.553Z,25.20
2023-03-25T04:02:00.164Z,24.00
2023-03-25T04:04:28.540Z,24.30
2023-03-25T04:07:10.724Z,24.60
2023-03-25T04:09:54.950Z,24.50
2023-03-25T04:12:27.750Z,25.30
2023-03-25T04:15:01.108Z,24.40
2023-03-25T04:17:35.765Z,21.90
2023-03-25T04:20:09.186Z,23.90
2023-03-25T04:22:38.049Z,20.50
2023-03-25T04:25:12.500Z,21.10
2023-03-25T04:27:40.795Z,20.30
2023-03-25T04:30:09.625Z,21.80
2023-03-25T04:32:38.530Z,20.30
2023-03-25T04:35:10.709Z,20.00
2023-03-25T04:37:39.059Z,17.20
2023-03-25T04:40:09.451Z,19.60
2023-03-25T04:42:39.078Z,17.90
2023-03-25T04:45:07.947Z,19.70
2023-03-25T04:50:23.945Z,17.90
2023-03-25T04:52:53.438Z,18.60
2023-03-25T04:55:49.397Z,17.20
2023-03-25T04:58:18.396Z,16.40
2023-03-25T05:00:50.422Z,17.20
2023-03-25T05:03:24.751Z,15.40
2023-03-25T05:05:56.739Z,16.40
2023-03-25T05:08:27.476Z,15.50
2023-03-25T05:11:45.962Z,14.00
2023-03-25T05:14:44.228Z,15.20
2023-03-25T05:17:12.840Z,15.20
2023-03-25T05:19:44.138Z,13.30
2023-03-25T05:22:13.446Z,12.40
2023-03-25T05:24:45.354Z,11.80
2023-03-25T05:27:23.683Z,12.20
2023-03-25T05:29:52.366Z,12.80
2023-03-25T05:32:21.957Z,12.90
2023-03-25T05:34:57.282Z,13.10
2023-03-25T05:37:25.596Z,10.90
2023-03-25T05:39:56.711Z,11.10
2023-03-25T05:42:27.635Z,14.50
2023-03-25T05:44:58.459Z,12.00
2023-03-25T05:47:29.360Z,11.30
2023-03-25T05:49:57.715Z,11.30
2023-03-25T05:52:27.636Z,10.50
2023-03-25T05:54:56.060Z,11.10
2023-03-25T05:57:26.014Z,11.80
2023-03-25T05:59:55.975Z,11.20
2023-03-25T06:02:25.791Z,9.60
2023-03-25T06:04:54.675Z,11.40
2023-03-25T06:07:48.476Z,10.40
2023-03-25T06:10:23.770Z,10.80
2023-03-25T06:12:54.465Z,9.70
2023-03-25T06:18:26.356Z,11.40
2023-03-25T06:21:20.033Z,10.30
2023-03-25T06:23:49.603Z,9.20
2023-03-25T06:26:18.421Z,9.50
2023-03-25T06:28:47.454Z,10.00
2023-03-25T06:31:48.163Z,9.50
2023-03-25T06:34:16.701Z,8.20
2023-03-25T06:36:44.874Z,9.00
2023-03-25T06:39:14.376Z,10.00
2023-03-25T06:41:48.645Z,10.40
2023-03-25T06:44:24.423Z,8.80
2023-03-25T06:47:15.195Z,8.90
2023-03-25T06:49:50.995Z,7.40
2023-03-25T06:52:19.591Z,9.80
2023-03-25T06:54:51.466Z,8.80
2023-03-25T06:57:19.992Z,8.70
2023-03-25T06:59:49.855Z,8.90
2023-03-25T07:02:18.157Z,8.80
2023-03-25T07:04:46.391Z,8.80
2023-03-25T07:07:16.205Z,9.70
2023-03-25T07:09:55.419Z,10.20
2023-03-25T07:12:24.062Z,10.60
2023-03-25T07:14:59.289Z,13.70
2023-03-25T07:17:27.616Z,9.30
2023-03-25T07:19:58.192Z,10.40
2023-03-25T07:22:26.986Z,10.30
2023-03-25T07:24:56.337Z,8.20
2023-03-25T07:27:29.186Z,8.70
2023-03-25T07:30:05.023Z,9.50
2023-03-25T07:32:37.149Z,10.20
2023-03-25T07:35:06.848Z,10.60
2023-03-25T07:37:38.987Z,10.20
2023-03-25T07:40:08.300Z,8.00
2023-03-25T07:42:38.665Z,10.40
2023-03-25T07:45:43.813Z,12.00
2023-03-25T07:48:17.077Z,8.20
2023-03-25T07:50:46.279Z,9.80
2023-03-25T07:53:20.165Z,7.80
2023-03-25T07:55:51.395Z,8.20
2023-03-25T07:58:20.030Z,9.70
2023-03-25T08:00:50.554Z,9.00
2023-03-25T08:03:18.853Z,14.10
2023-03-25T08:05:49.331Z,8.40
2023-03-25T08:08:18.162Z,11.10
2023-03-25T08:10:48.433Z,11.20
2023-03-25T08:13:20.142Z,9.60
2023-03-25T08:15:52.654Z,15.40
2023-03-25T08:18:21.586Z,11.20
2023-03-25T08:20:52.619Z,14.10
2023-03-25T08:23:22.855Z,12.40
2023-03-25T08:25:51.459Z,8.30
2023-03-25T08:28:23.804Z,10.20
2023-03-25T08:30:55.508Z,8.80
2023-03-25T08:33:27.735Z,7.70
2023-03-25T08:35:57.792Z,9.90
2023-03-25T08:38:34.577Z,10.10
2023-03-25T08:41:05.724Z,7.50
2023-03-25T08:43:34.220Z,7.50
2023-03-25T08:46:08.793Z,8.10
2023-03-25T08:48:38.061Z,9.00
2023-03-25T08:51:08.071Z,13.70
2023-03-25T08:53:38.557Z,9.60
2023-03-25T08:56:07.586Z,7.80
2023-03-25T08:58:38.174Z,10.50
2023-03-25T09:01:12.490Z,7.90
2023-03-25T09:04:06.126Z,7.60
2023-03-25T09:09:39.150Z,9.20
2023-03-25T09:12:12.147Z,11.50
2023-03-25T09:14:41.174Z,8.70
2023-03-25T09:17:11.104Z,8.50
2023-03-25T09:19:41.152Z,8.70
2023-03-25T09:22:12.996Z,10.20
2023-03-25T09:24:41.750Z,10.70
2023-03-25T09:27:11.198Z,8.90
2023-03-25T09:29:43.299Z,8.60
2023-03-25T09:32:18.895Z,15.50
2023-03-25T09:34:48.696Z,12.00
2023-03-25T09:37:17.594Z,9.30
2023-03-25T09:39:46.263Z,8.40
2023-03-25T09:42:36.985Z,9.70
2023-03-25T09:45:23.377Z,11.50
2023-03-25T09:47:58.604Z,14.20
2023-03-25T09:50:27.176Z,12.90
2023-03-25T10:04:57.356Z,11.80
2023-03-25T10:07:54.670Z,17.10
2023-03-25T10:10:46.378Z,12.20
2023-03-25T10:13:42.413Z,11.70
2023-03-25T10:16:24.125Z,11.30
2023-03-25T10:19:14.931Z,11.30
2023-03-25T10:22:08.601Z,13.30
2023-03-25T10:24:59.425Z,11.70
2023-03-25T10:27:41.038Z,11.70
2023-03-25T10:30:21.341Z,17.30
2023-03-25T10:32:58.412Z,13.60
2023-03-25T10:35:29.580Z,15.90
2023-03-25T10:38:13.682Z,11.90
2023-03-25T10:40:49.492Z,12.40
2023-03-25T10:43:27.114Z,22.00
2023-03-25T10:45:57.263Z,11.30
2023-03-25T10:48:30.667Z,10.10
2023-03-25T10:51:26.275Z,13.10
2023-03-25T10:53:54.382Z,10.90
2023-03-25T10:56:26.187Z,10.20
2023-03-25T10:58:56.070Z,10.60
2023-03-25T11:01:37.768Z,11.30
2023-03-25T11:04:18.891Z,12.50
2023-03-25T11:06:54.911Z,9.00
2023-03-25T11:09:36.261Z,13.50
2023-03-25T11:12:07.043Z,10.80
2023-03-25T11:14:39.489Z,9.40
2023-03-25T11:17:32.743Z,9.10
2023-03-25T11:20:02.172Z,9.40
2023-03-25T11:22:30.893Z,9.20
2023-03-25T11:25:07.121Z,10.30
2023-03-25T11:27:42.686Z,10.20
2023-03-25T11:30:18.000Z,10.30
2023-03-25T11:33:41.707Z,9.00
2023-03-25T11:36:26.524Z,10.70
2023-03-25T11:38:58.721Z,9.30
2023-03-25T11:41:33.146Z,13.90
2023-03-25T11:44:00.729Z,9.60
2023-03-25T11:46:27.696Z,10.10
2023-03-25T11:48:57.106Z,9.60
2023-03-25T11:51:27.409Z,8.90
2023-03-25T11:54:02.597Z,8.80
2023-03-25T11:56:44.424Z,8.30
2023-03-25T11:59:44.682Z,11.70
2023-03-25T12:02:38.351Z,9.80
2023-03-25T12:07:45.297Z,15.10
2023-03-25T12:10:19.739Z,8.40
2023-03-25T12:13:35.985Z,17.20
2023-03-25T12:16:08.239Z,9.90
2023-03-25T12:18:47.570Z,12.10
2023-03-25T12:21:40.867Z,8.90
2023-03-25T12:24:30.556Z,10.00
2023-03-25T12:27:10.759Z,10.50
2023-03-25T12:29:51.703Z,11.20
2023-03-25T12:32:37.509Z,11.40
2023-03-25T12:35:13.778Z,10.90
2023-03-25T12:37:44.001Z,14.10
2023-03-25T12:40:33.089Z,11.20
2023-03-25T12:43:09.887Z,89.90
2023-03-25T12:45:49.959Z,16.40
2023-03-25T12:49:04.204Z,9.50
2023-03-25T12:52:03.951Z,10.10
2023-03-25T12:55:01.812Z,10.50
2023-03-25T12:57:37.575Z,9.30
2023-03-25T13:03:35.720Z,6.80
2023-03-25T13:09:15.829Z,7.70
2023-03-25T13:11:48.885Z,9.10
2023-03-25T13:14:20.164Z,9.10
2023-03-25T13:16:48.686Z,8.00
2023-03-25T13:19:40.700Z,8.00
2023-03-25T13:22:23.441Z,8.40
2023-03-25T13:24:58.756Z,9.40
2023-03-25T13:27:25.836Z,8.60
2023-03-25T13:29:57.111Z,9.00
2023-03-25T13:32:33.266Z,8.80
2023-03-25T13:35:03.521Z,9.70
2023-03-25T13:37:45.842Z,11.10
2023-03-25T13:40:27.318Z,10.90
2023-03-25T13:43:02.466Z,11.20
2023-03-25T13:45:35.852Z,10.90
2023-03-25T13:48:11.851Z,14.20
2023-03-25T13:50:39.101Z,14.70
2023-03-25T13:53:35.208Z,11.70
2023-03-25T13:56:36.543Z,13.10
2023-03-25T13:59:15.856Z,9.10
2023-03-25T14:02:04.954Z,11.00
2023-03-25T14:05:06.170Z,8.50
2023-03-25T14:07:52.543Z,7.60
2023-03-25T14:10:24.178Z,9.80
2023-03-25T14:12:53.442Z,9.30
2023-03-25T14:15:21.391Z,7.00
2023-03-25T14:17:50.573Z,8.60
2023-03-25T14:20:29.427Z,8.30
2023-03-25T14:22:58.189Z,6.80
2023-03-25T14:25:39.215Z,8.70
2023-03-25T14:28:07.339Z,7.20
2023-03-25T14:30:35.566Z,7.40
2023-03-25T14:33:02.881Z,6.90
2023-03-25T14:35:33.705Z,7.70
2023-03-25T14:38:54.296Z,12.40
2023-03-25T14:42:00.106Z,11.30
2023-03-25T14:44:32.266Z,7.60
2023-03-25T14:49:22.460Z,8.60
2023-03-25T14:51:51.875Z,9.30
2023-03-25T14:54:22.912Z,8.90
2023-03-25T14:57:04.599Z,11.10
2023-03-25T14:59:38.187Z,16.80
2023-03-25T15:02:37.294Z,36.10
2023-03-25T15:05:57.529Z,14.80
2023-03-25T15:08:39.333Z,12.00
2023-03-25T15:11:16.128Z,13.90
2023-03-25T15:13:56.331Z,15.20
2023-03-25T15:16:32.694Z,16.50
2023-03-25T15:19:06.822Z,18.30
2023-03-25T15:21:58.597Z,18.30
2023-03-25T15:24:29.982Z,26.40
2023-03-25T15:27:02.332Z,20.10
2023-03-25T15:29:43.134Z,16.50
2023-03-25T15:32:17.245Z,17.20
2023-03-25T15:35:00.818Z,16.90
2023-03-25T15:37:56.948Z,19.50
2023-03-25T15:40:53.770Z,21.10
2023-03-25T15:44:00.541Z,19.20
2023-03-25T15:47:23.973Z,21.90
2023-03-25T15:50:18.034Z,18.80
2023-03-25T15:52:54.183Z,17.40
2023-03-25T15:55:53.538Z,17.60
2023-03-25T15:58:48.654Z,13.60
2023-03-25T16:01:43.003Z,14.60
2023-03-25T16:04:16.114Z,12.20
2023-03-25T16:06:47.289Z,12.20
2023-03-25T16:09:19.584Z,16.20
2023-03-25T16:12:23.203Z,19.70
2023-03-25T16:14:52.446Z,18.60
2023-03-25T16:17:28.429Z,19.60
2023-03-25T16:19:56.782Z,21.10
2023-03-25T16:22:32.115Z,27.60
2023-03-25T16:25:20.244Z,25.40
2023-03-25T16:27:53.093Z,26.30
2023-03-25T16:30:27.517Z,24.70
2023-03-25T16:33:08.547Z,27.60
2023-03-25T16:36:04.559Z,28.10
2023-03-25T16:38:33.568Z,26.70
2023-03-25T16:41:37.864Z,38.40
2023-03-25T16:44:07.463Z,31.90
2023-03-25T16:46:37.052Z,26.10
2023-03-25T16:49:05.539Z,26.00
2023-03-25T16:51:36.768Z,29.90
2023-03-25T16:54:31.223Z,36.40
2023-03-25T16:57:08.080Z,25.20
2023-03-25T16:59:39.575Z,24.20
2023-03-25T17:02:42.343Z,24.70
2023-03-25T17:05:26.493Z,20.30
2023-03-25T17:08:08.217Z,23.80
2023-03-25T17:11:06.346Z,25.20
2023-03-25T17:14:06.867Z,23.00
2023-03-25T17:16:36.814Z,20.00
2023-03-25T17:19:05.117Z,20.50
2023-03-25T17:22:04.316Z,18.50
2023-03-25T17:24:40.652Z,21.60
2023-03-25T17:27:36.672Z,24.20
2023-03-25T17:30:21.140Z,31.50
2023-03-25T17:32:51.233Z,32.80
2023-03-25T17:35:28.371Z,29.90
2023-03-25T17:38:01.353Z,28.30
2023-03-25T17:40:30.026Z,30.00
2023-03-25T17:43:00.970Z,26.70
2023-03-25T17:45:29.394Z,24.10
2023-03-25T17:48:23.676Z,21.70
2023-03-25T17:50:53.469Z,19.30
2023-03-25T17:53:22.043Z,17.40
2023-03-25T17:55:51.174Z,18.40
2023-03-25T17:58:21.031Z,17.30
2023-03-25T18:00:50.257Z,18.50
2023-03-25T18:03:30.100Z,18.40
2023-03-25T18:06:22.562Z,17.80
2023-03-25T18:08:51.837Z,19.10
2023-03-25T18:11:20.590Z,16.70
2023-03-25T18:13:57.491Z,17.40
2023-03-25T18:18:55.369Z,17.90
2023-03-25T18:21:26.227Z,19.40
2023-03-25T18:24:22.167Z,19.70
2023-03-25T18:26:51.146Z,21.10
2023-03-25T18:29:28.459Z,19.90
2023-03-25T18:31:56.927Z,19.10
2023-03-25T18:36:58.760Z,21.90
2023-03-25T18:39:27.944Z,18.50
2023-03-25T18:41:57.310Z,19.90
2023-03-25T18:44:27.875Z,21.40
2023-03-25T18:47:24.522Z,21.80
2023-03-25T18:49:53.877Z,19.00
2023-03-25T18:52:22.343Z,23.30
2023-03-25T18:54:50.924Z,21.90
2023-03-25T18:57:19.264Z,20.60
2023-03-25T18:59:48.856Z,21.80
2023-03-25T19:02:19.412Z,22.20
2023-03-25T19:05:00.284Z,20.30
2023-03-25T19:10:00.278Z,23.30
2023-03-25T19:12:29.138Z,21.80
2023-03-25T19:15:01.877Z,19.30
2023-03-25T19:17:30.676Z,20.60
2023-03-25T19:20:16.802Z,23.40
2023-03-25T19:22:47.727Z,20.60
2023-03-25T19:25:16.393Z,21.10
2023-03-25T19:30:21.504Z,18.20
2023-03-25T19:32:51.804Z,22.40
2023-03-25T19:35:20.948Z,19.00
2023-03-25T19:37:53.196Z,21.20
2023-03-25T19:40:26.494Z,23.80
2023-03-25T19:42:57.381Z,20.80
2023-03-25T19:45:26.378Z,22.30
2023-03-25T19:47:57.806Z,20.60
2023-03-25T19:50:28.253Z,22.40
2023-03-25T19:53:06.335Z,21.80
2023-03-25T19:55:35.078Z,21.80
2023-03-25T19:58:04.345Z,22.00
2023-03-25T20:03:06.523Z,23.40
2023-03-25T20:10:52.693Z,22.30
2023-03-25T20:13:32.488Z,25.00
2023-03-25T20:16:01.078Z,22.90
2023-03-25T20:18:29.601Z,21.60
2023-03-25T20:21:29.283Z,25.40
2023-03-25T20:23:58.256Z,20.70
2023-03-25T20:26:26.588Z,20.50
2023-03-25T20:28:57.423Z,21.70
2023-03-25T20:31:26.632Z,21.90
2023-03-25T20:33:55.511Z,23.50
2023-03-25T20:36:23.813Z,22.00
2023-03-25T20:38:57.530Z,24.80
2023-03-25T20:41:26.881Z,23.70
2023-03-25T20:43:55.437Z,22.40
2023-03-25T20:46:49.941Z,23.10
2023-03-25T20:49:42.008Z,22.80
2023-03-25T20:52:14.243Z,23.50
2023-03-25T20:54:42.912Z,25.00
2023-03-25T20:57:13.602Z,27.60
2023-03-25T20:59:42.821Z,24.20
2023-03-25T21:02:11.765Z,21.30
2023-03-25T21:04:40.168Z,23.10
2023-03-25T21:07:10.380Z,25.60
2023-03-25T21:09:38.852Z,25.70
2023-03-25T21:12:08.177Z,22.80
2023-03-25T21:14:37.962Z,25.80
2023-03-25T21:17:06.802Z,24.20
2023-03-25T21:19:35.632Z,24.20
2023-03-25T21:22:08.014Z,22.00
2023-03-25T21:24:36.760Z,25.20
2023-03-25T21:27:05.344Z,24.90
2023-03-25T21:29:33.545Z,23.30
2023-03-25T21:32:02.383Z,23.40
2023-03-25T21:34:32.009Z,22.60
2023-03-25T21:37:02.366Z,27.50
2023-03-25T21:39:31.746Z,49.00
2023-03-25T21:42:25.600Z,28.00
2023-03-25T21:44:53.873Z,26.00
2023-03-25T21:47:22.603Z,27.30
2023-03-25T21:49:51.198Z,27.80
2023-03-25T21:52:19.569Z,26.50
2023-03-25T21:54:50.016Z,25.80
2023-03-25T21:57:18.276Z,25.30
2023-03-25T21:59:54.938Z,29.10
2023-03-25T22:02:23.126Z,27.10
2023-03-25T22:04:51.430Z,26.30
2023-03-25T22:07:20.557Z,27.90
2023-03-25T22:09:49.410Z,26.80
2023-03-25T22:12:18.573Z,28.90
2023-03-25T22:14:46.828Z,25.20
2023-03-25T22:17:15.698Z,32.10
2023-03-25T22:19:44.078Z,27.50
2023-03-25T22:22:19.270Z,26.10
2023-03-25T22:24:49.157Z,27.60
2023-03-25T22:27:17.447Z,26.60
2023-03-25T22:29:50.686Z,27.30
2023-03-25T22:32:18.967Z,26.60
2023-03-25T22:34:47.206Z,27.20
2023-03-25T22:37:15.805Z,26.30
2023-03-25T22:39:44.410Z,27.40
2023-03-25T22:42:13.158Z,24.90
2023-03-25T22:44:44.816Z,26.70
2023-03-25T22:47:13.615Z,27.00
2023-03-25T22:49:42.065Z,28.00
2023-03-25T22:52:12.584Z,26.10
2023-03-25T22:54:41.112Z,24.80
2023-03-25T22:57:09.477Z,26.80
2023-03-25T22:59:39.424Z,22.00
2023-03-25T23:02:07.855Z,25.00
2023-03-25T23:04:36.532Z,25.00
2023-03-25T23:07:08.318Z,23.40
2023-03-25T23:09:44.258Z,25.30
2023-03-25T23:12:23.109Z,23.40
2023-03-25T23:14:54.486Z,23.00
2023-03-25T23:17:25.062Z,22.80
2023-03-25T23:19:53.540Z,21.30
2023-03-25T23:22:25.309Z,22.60
2023-03-25T23:24:54.661Z,22.00
2023-03-25T23:27:27.127Z,21.40
2023-03-25T23:29:56.855Z,22.50
2023-03-25T23:32:25.232Z,23.10
2023-03-25T23:34:58.502Z,19.90
2023-03-25T23:37:27.236Z,21.10
2023-03-25T23:39:55.502Z,21.20
2023-03-25T23:42:34.774Z,21.10
2023-03-25T23:45:05.006Z,21.80
2023-03-25T23:47:33.373Z,19.40
2023-03-25T23:50:03.198Z,19.30
2023-03-25T23:52:33.620Z,19.00
2023-03-25T23:55:02.551Z,18.60
2023-03-25T23:57:31.034Z,16.40
2023-03-25T23:59:59.763Z,18.90
